Terminal Aerodrome Forecast
Issued by NWS Hastings, NE

Current Version | Previous Version | Text Only | Print | Product List | Glossary On
Versions: 1 2 3 4 5 6 7 8 9 10 11 12 13 14 15
000
FTUS43 KGID 221124
TAFGRI
TAF
KGRI 221124Z 2212/2312 17017KT P6SM FEW250 WS015/19047KT
     FM221400 18019G29KT P6SM FEW200
     FM230600 17013G19KT P6SM SCT200
     FM231100 17009KT P6SM SCT150=

USA.gov is the U.S. government's official web portal to all federal, state and local government web resources and services.